Terminal Aerodrome Forecast
Issued by NWS

Home | Current Version | Previous Version | Text Only | Print | Product List | Glossary On
Versions: 1 2 3 4 5 6 7 8 9 10 11 12 13 14 15 16 17 18 19 20 21 22 23 24 25 26 27 28
000
FTUS42 TJSJ 202339
TAFISX
TAF
TISX 202339Z 2100/2124 08010KT P6SM VCSH FEW025
     FM211300 11015KT P6SM VCSH SCT030 SCT050
     FM212200 07010KT P6SM SCT030=

USA.gov is the U.S. government's official web portal to all federal, state and local government web resources and services.